createdAt,value
2023-03-14T00:01:28.784Z,0.50
2023-03-14T00:03:55.566Z,0.40
2023-03-14T00:06:22.452Z,0.30
2023-03-14T00:08:49.089Z,0.33
2023-03-14T00:11:19.215Z,0.40
2023-03-14T00:13:49.211Z,0.30
2023-03-14T00:16:15.948Z,0.30
2023-03-14T00:18:42.654Z,0.20
2023-03-14T00:21:10.740Z,0.40
2023-03-14T00:23:38.701Z,0.30
2023-03-14T00:26:08.993Z,0.20
2023-03-14T00:28:35.692Z,0.27
2023-03-14T00:31:09.989Z,0.40
2023-03-14T00:33:37.018Z,0.30
2023-03-14T00:36:22.104Z,0.30
2023-03-14T00:38:51.521Z,0.50
2023-03-14T00:41:20.938Z,0.30
2023-03-14T00:43:47.572Z,0.30
2023-03-14T00:46:14.452Z,0.30
2023-03-14T00:48:41.645Z,0.20
2023-03-14T00:51:09.542Z,0.33
2023-03-14T00:53:37.085Z,0.40
2023-03-14T00:56:05.609Z,0.30
2023-03-14T00:58:32.274Z,0.30
2023-03-14T01:00:58.989Z,0.30
2023-03-14T01:03:25.868Z,0.30
2023-03-14T01:05:52.502Z,0.37
2023-03-14T01:08:19.178Z,0.40
2023-03-14T01:10:45.816Z,0.30
2023-03-14T01:13:12.462Z,0.30
2023-03-14T01:15:39.119Z,0.40
2023-03-14T01:18:06.141Z,0.30
2023-03-14T01:20:32.947Z,0.37
2023-03-14T01:22:59.655Z,0.27
2023-03-14T01:25:26.402Z,0.40
2023-03-14T01:27:53.073Z,0.20
2023-03-14T01:30:19.738Z,0.20
2023-03-14T01:32:46.463Z,0.33
2023-03-14T01:35:13.138Z,0.20
2023-03-14T01:37:39.850Z,0.20
2023-03-14T01:40:07.062Z,0.30
2023-03-14T01:42:33.835Z,0.20
2023-03-14T01:45:01.967Z,0.27
2023-03-14T01:47:28.897Z,0.30
2023-03-14T01:50:07.813Z,0.30
2023-03-14T01:52:39.497Z,0.33
2023-03-14T01:55:19.159Z,0.20
2023-03-14T01:58:01.627Z,0.30
2023-03-14T02:00:28.262Z,0.20
2023-03-14T02:02:58.314Z,0.20
2023-03-14T02:05:28.047Z,0.33
2023-03-14T02:07:57.299Z,0.40
2023-03-14T02:10:27.101Z,0.30
2023-03-14T02:12:56.978Z,0.27
2023-03-14T02:15:24.100Z,0.30
2023-03-14T02:17:50.827Z,0.40
2023-03-14T02:20:23.374Z,0.37
2023-03-14T02:22:50.122Z,0.30
2023-03-14T02:25:22.796Z,0.30
2023-03-14T02:27:50.031Z,0.30
2023-03-14T02:30:22.381Z,0.40
2023-03-14T02:33:08.461Z,0.30
2023-03-14T02:35:45.578Z,0.30
2023-03-14T02:38:43.845Z,0.23
2023-03-14T02:41:10.539Z,0.20
2023-03-14T02:43:37.170Z,0.33
2023-03-14T02:46:05.927Z,0.20
2023-03-14T02:48:46.384Z,0.20
2023-03-14T02:51:13.526Z,0.40
2023-03-14T02:53:42.143Z,0.20
2023-03-14T02:56:09.638Z,0.30
2023-03-14T02:58:36.426Z,0.20
2023-03-14T03:01:03.490Z,0.30
2023-03-14T03:03:30.274Z,0.30
2023-03-14T03:05:57.467Z,0.20
2023-03-14T03:08:27.215Z,0.30
2023-03-14T03:10:53.934Z,0.40
2023-03-14T03:13:20.788Z,0.30
2023-03-14T03:15:47.422Z,0.50
2023-03-14T03:18:14.019Z,0.30
2023-03-14T03:20:40.662Z,0.30
2023-03-14T03:23:07.390Z,0.30
2023-03-14T03:25:34.085Z,0.20
2023-03-14T03:28:01.571Z,0.20
2023-03-14T03:30:28.196Z,0.37
2023-03-14T03:32:54.867Z,0.40
2023-03-14T03:35:21.536Z,0.27
2023-03-14T03:37:48.160Z,0.43
2023-03-14T03:40:14.781Z,0.30
2023-03-14T03:42:41.480Z,0.50
2023-03-14T03:45:08.698Z,0.37
2023-03-14T03:47:35.303Z,0.50
2023-03-14T03:50:02.060Z,0.50
2023-03-14T03:52:28.683Z,0.40
2023-03-14T03:54:55.316Z,0.40
2023-03-14T03:57:21.938Z,0.60
2023-03-14T03:59:48.551Z,0.37
2023-03-14T04:02:15.184Z,0.50
2023-03-14T04:04:42.082Z,0.50
2023-03-14T04:07:08.889Z,0.43
2023-03-14T04:09:35.515Z,0.30
2023-03-14T04:12:02.107Z,0.50
2023-03-14T04:14:28.786Z,0.40
2023-03-14T04:16:55.411Z,0.40
2023-03-14T04:19:22.057Z,0.67
2023-03-14T04:21:48.664Z,0.50
2023-03-14T04:24:15.561Z,0.50
2023-03-14T04:26:42.402Z,0.50
2023-03-14T04:29:09.100Z,0.30
2023-03-14T04:31:36.026Z,0.40
2023-03-14T04:34:02.895Z,0.43
2023-03-14T04:36:29.503Z,0.60
2023-03-14T04:38:56.097Z,0.43
2023-03-14T04:41:22.763Z,0.40
2023-03-14T04:43:49.368Z,0.40
2023-03-14T04:46:16.078Z,0.50
2023-03-14T04:48:42.739Z,0.53
2023-03-14T04:51:09.455Z,0.33
2023-03-14T04:53:37.900Z,0.40
2023-03-14T04:56:04.857Z,0.57
2023-03-14T04:58:31.498Z,0.40
2023-03-14T05:01:03.911Z,0.30
2023-03-14T05:03:30.818Z,0.30
2023-03-14T05:05:58.440Z,0.60
2023-03-14T05:08:25.143Z,0.40
2023-03-14T05:10:56.587Z,0.57
2023-03-14T05:13:23.570Z,0.67
2023-03-14T05:15:51.598Z,0.50
2023-03-14T05:18:19.624Z,0.40
2023-03-14T05:20:46.291Z,0.37
2023-03-14T05:23:13.183Z,0.43
2023-03-14T05:25:39.817Z,0.40
2023-03-14T05:28:06.475Z,0.60
2023-03-14T05:30:34.625Z,0.60
2023-03-14T05:33:01.334Z,0.50
2023-03-14T05:35:28.036Z,0.70
2023-03-14T05:37:54.646Z,0.70
2023-03-14T05:40:21.234Z,0.53
2023-03-14T05:42:47.848Z,0.50
2023-03-14T05:45:14.497Z,0.30
2023-03-14T05:47:41.166Z,0.70
2023-03-14T05:50:08.294Z,0.43
2023-03-14T05:52:34.907Z,0.70
2023-03-14T05:55:01.540Z,0.50
2023-03-14T05:57:28.130Z,0.50
2023-03-14T05:59:55.091Z,0.40
2023-03-14T06:02:21.802Z,0.50
2023-03-14T06:04:48.478Z,0.40
2023-03-14T06:07:15.091Z,0.50
2023-03-14T06:09:41.729Z,0.43
2023-03-14T06:12:08.391Z,0.30
2023-03-14T06:14:35.046Z,0.40
2023-03-14T06:17:01.730Z,0.50
2023-03-14T06:19:28.368Z,0.50
2023-03-14T06:21:54.955Z,0.40
2023-03-14T06:24:21.733Z,0.50
2023-03-14T06:26:48.334Z,0.43
2023-03-14T06:29:15.046Z,0.50
2023-03-14T06:31:41.805Z,0.70
2023-03-14T06:34:08.536Z,0.50
2023-03-14T06:36:35.125Z,0.80
2023-03-14T06:39:01.738Z,0.60
2023-03-14T06:41:28.367Z,0.40
2023-03-14T06:43:56.476Z,0.50
2023-03-14T06:46:23.354Z,0.50
2023-03-14T06:48:50.151Z,0.63
2023-03-14T06:51:16.861Z,0.80
2023-03-14T06:53:43.472Z,0.47
2023-03-14T06:56:10.231Z,0.60
2023-03-14T06:58:37.108Z,0.53
2023-03-14T07:01:03.896Z,0.53
2023-03-14T07:03:30.566Z,0.80
2023-03-14T07:05:57.160Z,0.63
2023-03-14T07:08:23.921Z,0.53
2023-03-14T07:10:50.508Z,0.63
2023-03-14T07:13:17.148Z,0.57
2023-03-14T07:15:43.918Z,0.50
2023-03-14T07:18:10.538Z,0.60
2023-03-14T07:20:37.169Z,0.73
2023-03-14T07:23:06.622Z,0.63
2023-03-14T07:25:33.223Z,0.30
2023-03-14T07:27:59.807Z,0.63
2023-03-14T07:30:26.406Z,0.50
2023-03-14T07:32:53.284Z,0.60
2023-03-14T07:35:19.932Z,0.50
2023-03-14T07:37:46.612Z,0.47
2023-03-14T07:40:15.950Z,0.43
2023-03-14T07:42:43.561Z,0.70
2023-03-14T07:45:12.325Z,0.50
2023-03-14T07:47:39.239Z,0.50
2023-03-14T07:50:06.594Z,0.57
2023-03-14T07:52:33.329Z,0.40
2023-03-14T07:55:00.041Z,0.20
2023-03-14T07:57:26.650Z,0.17
2023-03-14T07:59:53.243Z,0.37
2023-03-14T08:02:23.214Z,0.40
2023-03-14T08:04:50.204Z,0.50
2023-03-14T08:07:16.876Z,0.30
2023-03-14T08:09:43.593Z,0.40
2023-03-14T08:12:10.197Z,0.50
2023-03-14T08:14:36.869Z,0.60
2023-03-14T08:17:03.553Z,0.57
2023-03-14T08:19:30.232Z,0.50
2023-03-14T08:21:56.824Z,0.40
2023-03-14T08:24:23.450Z,0.40
2023-03-14T08:26:50.074Z,0.43
2023-03-14T08:29:16.683Z,0.30
2023-03-14T08:31:43.349Z,0.50
2023-03-14T08:34:10.047Z,0.37
2023-03-14T08:36:36.817Z,0.43
2023-03-14T08:39:04.897Z,0.50
2023-03-14T08:41:31.609Z,0.40
2023-03-14T08:43:58.282Z,0.60
2023-03-14T08:46:24.962Z,0.37
2023-03-14T08:48:51.618Z,0.40
2023-03-14T08:51:18.808Z,0.40
2023-03-14T08:53:45.399Z,0.40
2023-03-14T08:56:12.096Z,0.40
2023-03-14T08:58:39.110Z,0.23
2023-03-14T09:01:10.276Z,0.30
2023-03-14T09:03:37.070Z,0.30
2023-03-14T09:06:05.639Z,0.30
2023-03-14T09:08:32.744Z,0.30
2023-03-14T09:10:59.466Z,0.30
2023-03-14T09:13:26.073Z,0.40
2023-03-14T09:15:53.791Z,0.40
2023-03-14T09:18:20.569Z,0.40
2023-03-14T09:20:47.187Z,0.40
2023-03-14T09:23:13.829Z,0.30
2023-03-14T09:25:40.539Z,0.23
2023-03-14T09:28:07.394Z,0.27
2023-03-14T09:30:34.415Z,0.27
2023-03-14T09:33:01.375Z,0.20
2023-03-14T09:35:28.578Z,0.30
2023-03-14T09:37:55.773Z,0.20
2023-03-14T09:40:24.614Z,0.40
2023-03-14T09:42:57.578Z,0.30
2023-03-14T09:45:32.840Z,0.20
2023-03-14T09:48:00.699Z,0.30
2023-03-14T09:50:34.257Z,0.40
2023-03-14T09:53:04.549Z,0.20
2023-03-14T09:55:31.982Z,0.20
2023-03-14T09:58:01.473Z,0.27
2023-03-14T10:00:31.374Z,0.10
2023-03-14T10:03:12.901Z,0.30
2023-03-14T10:05:42.577Z,0.13
2023-03-14T10:08:13.294Z,0.30
2023-03-14T10:10:40.471Z,0.30
2023-03-14T10:13:28.906Z,0.30
2023-03-14T10:16:04.936Z,0.30
2023-03-14T10:18:35.126Z,0.10
2023-03-14T10:21:08.096Z,0.30
2023-03-14T10:23:35.478Z,0.20
2023-03-14T10:26:02.596Z,0.17
2023-03-14T10:28:31.938Z,0.40
2023-03-14T10:30:59.511Z,0.30
2023-03-14T10:33:32.616Z,0.30
2023-03-14T10:36:04.713Z,0.10
2023-03-14T10:38:33.110Z,0.10
2023-03-14T10:41:00.198Z,0.30
2023-03-14T10:43:31.840Z,0.23
2023-03-14T10:46:07.154Z,0.13
2023-03-14T10:48:36.380Z,0.17
2023-03-14T10:51:08.799Z,0.20
2023-03-14T10:53:59.077Z,0.10
2023-03-14T10:56:26.968Z,0.30
2023-03-14T10:59:04.694Z,0.10
2023-03-14T11:01:38.802Z,0.20
2023-03-14T11:04:24.147Z,0.20
2023-03-14T11:07:23.014Z,0.20
2023-03-14T11:10:10.170Z,0.37
2023-03-14T11:13:16.853Z,0.20
2023-03-14T11:16:22.324Z,0.30
2023-03-14T11:19:11.792Z,0.20
2023-03-14T11:21:39.071Z,0.20
2023-03-14T11:24:34.396Z,0.10
2023-03-14T11:27:18.558Z,0.20
2023-03-14T11:30:00.807Z,0.10
2023-03-14T11:32:47.302Z,0.20
2023-03-14T11:35:34.296Z,0.23
2023-03-14T11:38:01.666Z,0.30
2023-03-14T11:40:29.164Z,0.10
2023-03-14T11:43:02.037Z,0.30
2023-03-14T11:45:36.383Z,0.10
2023-03-14T11:48:26.286Z,0.17
2023-03-14T11:51:00.218Z,0.10
2023-03-14T11:53:30.769Z,0.10
2023-03-14T11:55:57.829Z,0.10
2023-03-14T11:58:27.330Z,0.20
2023-03-14T12:00:58.285Z,0.10
2023-03-14T12:03:24.849Z,0.20
2023-03-14T12:26:55.852Z,0.20
2023-03-14T12:29:43.170Z,0.30
2023-03-14T12:32:50.284Z,0.20
2023-03-14T12:35:43.911Z,0.30
2023-03-14T12:38:14.660Z,0.23
2023-03-14T12:40:51.675Z,0.30
2023-03-14T12:43:31.844Z,0.37
2023-03-14T12:46:25.615Z,0.30
2023-03-14T12:49:02.282Z,0.40
2023-03-14T12:51:44.749Z,0.40
2023-03-14T12:54:37.030Z,0.53
2023-03-14T12:57:07.719Z,0.47
2023-03-14T12:59:48.784Z,0.30
2023-03-14T13:02:28.496Z,0.60
2023-03-14T13:05:06.493Z,0.40
2023-03-14T13:07:49.567Z,0.57
2023-03-14T13:10:24.092Z,0.57
2023-03-14T13:13:15.065Z,0.90
2023-03-14T13:15:47.086Z,0.50
2023-03-14T13:18:17.508Z,0.40
2023-03-14T13:20:53.573Z,0.43
2023-03-14T13:23:24.746Z,0.60
2023-03-14T13:25:51.891Z,0.60
2023-03-14T13:28:19.587Z,0.63
2023-03-14T13:30:48.162Z,0.60
2023-03-14T13:33:18.018Z,0.47
2023-03-14T13:35:51.161Z,0.50
2023-03-14T13:38:24.142Z,0.40
2023-03-14T13:40:53.340Z,0.63
2023-03-14T13:43:42.112Z,0.40
2023-03-14T13:46:19.166Z,0.57
2023-03-14T13:48:48.210Z,0.50
2023-03-14T13:51:16.685Z,0.53
2023-03-14T13:53:49.997Z,0.40
2023-03-14T13:56:20.959Z,0.40
2023-03-14T13:58:48.219Z,0.73
2023-03-14T14:01:22.638Z,0.57
2023-03-14T14:03:52.580Z,0.43
2023-03-14T14:06:36.951Z,0.50
2023-03-14T14:09:18.000Z,0.50
2023-03-14T14:12:14.257Z,0.60
2023-03-14T14:14:57.022Z,0.60
2023-03-14T14:17:41.873Z,0.67
2023-03-14T14:20:17.412Z,0.40
2023-03-14T14:22:44.165Z,0.70
2023-03-14T14:25:14.836Z,0.50
2023-03-14T14:27:45.056Z,0.37
2023-03-14T14:30:17.998Z,0.50
2023-03-14T14:32:45.489Z,0.63
2023-03-14T14:35:26.884Z,0.60
2023-03-14T14:37:53.854Z,0.40
2023-03-14T14:40:22.420Z,0.63
2023-03-14T14:42:50.231Z,0.70
2023-03-14T14:45:21.945Z,0.60
2023-03-14T14:47:53.635Z,0.67
2023-03-14T14:50:30.947Z,0.70
2023-03-14T14:52:59.540Z,0.60
2023-03-14T14:55:33.905Z,0.70
2023-03-14T14:58:27.812Z,0.87
2023-03-14T15:00:58.612Z,0.80
2023-03-14T15:03:29.048Z,0.90
2023-03-14T15:05:58.702Z,0.60
2023-03-14T15:08:26.884Z,0.53
2023-03-14T15:10:53.939Z,0.70
2023-03-14T15:13:20.620Z,0.63
2023-03-14T15:15:48.096Z,0.70
2023-03-14T15:18:19.413Z,0.80
2023-03-14T15:20:46.635Z,0.80
2023-03-14T15:23:16.545Z,0.60
2023-03-14T15:25:55.521Z,1.00
2023-03-14T15:28:25.300Z,0.53
2023-03-14T15:30:54.403Z,0.77
2023-03-14T15:33:23.912Z,0.73
2023-03-14T15:35:51.369Z,0.47
2023-03-14T15:38:24.063Z,0.80
2023-03-14T15:40:51.774Z,0.60
2023-03-14T15:43:19.339Z,0.90
2023-03-14T15:45:46.268Z,0.80
2023-03-14T15:48:16.504Z,0.90
2023-03-14T15:50:43.460Z,0.50
2023-03-14T15:53:10.409Z,0.80
2023-03-14T15:55:37.021Z,0.70
2023-03-14T15:58:04.125Z,0.70
2023-03-14T16:00:31.237Z,0.60
2023-03-14T16:02:57.915Z,0.70
2023-03-14T16:05:24.535Z,0.60
2023-03-14T16:07:51.225Z,0.70
2023-03-14T16:10:17.920Z,0.70
2023-03-14T16:12:44.602Z,0.60
2023-03-14T16:15:11.564Z,0.70
2023-03-14T16:17:38.725Z,0.80
2023-03-14T16:20:06.452Z,0.70
2023-03-14T16:22:35.777Z,0.77
2023-03-14T16:25:07.234Z,0.70
2023-03-14T16:27:33.891Z,0.60
2023-03-14T16:30:00.653Z,0.80
2023-03-14T16:32:27.610Z,0.70
2023-03-14T16:34:54.437Z,0.73
2023-03-14T16:37:21.695Z,0.80
2023-03-14T16:40:10.577Z,0.80
2023-03-14T16:42:40.745Z,0.60
2023-03-14T16:45:10.778Z,0.80
2023-03-14T16:47:37.435Z,0.80
2023-03-14T16:50:04.363Z,0.67
2023-03-14T16:52:30.994Z,0.70
2023-03-14T16:54:57.635Z,0.50
2023-03-14T16:57:24.295Z,0.83
2023-03-14T16:59:50.924Z,0.80
2023-03-14T17:02:17.640Z,0.77
2023-03-14T17:04:44.341Z,0.77
2023-03-14T17:07:10.956Z,0.80
2023-03-14T17:09:37.710Z,0.93
2023-03-14T17:12:05.452Z,0.77
2023-03-14T17:14:32.595Z,0.80
2023-03-14T17:17:03.270Z,0.60
2023-03-14T17:19:29.930Z,0.80
2023-03-14T17:22:09.351Z,0.90
2023-03-14T17:24:43.951Z,1.10
2023-03-14T17:27:10.656Z,0.90
2023-03-14T17:29:37.280Z,0.80
2023-03-14T17:32:04.162Z,0.93
2023-03-14T17:34:31.040Z,0.80
2023-03-14T17:36:57.626Z,0.80
2023-03-14T17:39:24.237Z,0.80
2023-03-14T17:41:50.856Z,0.90
2023-03-14T17:44:17.494Z,0.90
2023-03-14T17:46:44.098Z,0.80
2023-03-14T17:49:10.714Z,0.77
2023-03-14T17:51:37.391Z,1.00
2023-03-14T17:54:04.125Z,1.00
2023-03-14T17:56:30.718Z,0.70
2023-03-14T17:58:57.778Z,0.87
2023-03-14T18:01:24.719Z,0.90
2023-03-14T18:03:56.231Z,0.70
2023-03-14T18:06:23.897Z,0.83
2023-03-14T18:08:51.407Z,0.67
2023-03-14T18:11:18.539Z,0.80
2023-03-14T18:13:45.226Z,0.80
2023-03-14T18:16:16.060Z,0.93
2023-03-14T18:18:45.415Z,0.90
2023-03-14T18:21:13.274Z,0.83
2023-03-14T18:23:39.968Z,1.00
2023-03-14T18:26:07.770Z,0.80
2023-03-14T18:28:34.680Z,0.80
2023-03-14T18:31:02.947Z,0.77
2023-03-14T18:33:30.047Z,0.80
2023-03-14T18:35:56.688Z,0.60
2023-03-14T18:38:23.509Z,0.80
2023-03-14T18:40:50.162Z,0.90
2023-03-14T18:43:16.788Z,0.90
2023-03-14T18:45:43.427Z,0.80
2023-03-14T18:48:10.118Z,0.97
2023-03-14T18:50:36.770Z,0.80
2023-03-14T18:53:03.394Z,0.90
2023-03-14T18:55:30.150Z,0.83
2023-03-14T18:57:56.781Z,0.90
2023-03-14T19:00:26.427Z,0.60
2023-03-14T19:02:53.123Z,0.83
2023-03-14T19:05:19.959Z,0.80
2023-03-14T19:07:46.583Z,0.77
2023-03-14T19:10:13.315Z,0.90
2023-03-14T19:12:39.946Z,0.60
2023-03-14T19:15:07.327Z,1.00
2023-03-14T19:17:33.966Z,0.73
2023-03-14T19:20:00.599Z,0.73
2023-03-14T19:22:27.235Z,0.70
2023-03-14T19:24:55.849Z,0.90
2023-03-14T19:27:22.464Z,0.73
2023-03-14T19:29:49.598Z,0.60
2023-03-14T19:32:18.607Z,0.70
2023-03-14T19:34:45.708Z,0.70
2023-03-14T19:37:12.356Z,0.90
2023-03-14T19:39:38.983Z,0.90
2023-03-14T19:42:05.644Z,0.90
2023-03-14T19:44:32.766Z,0.90
2023-03-14T19:46:59.396Z,0.90
2023-03-14T19:49:26.937Z,0.70
2023-03-14T19:51:53.512Z,0.87
2023-03-14T19:54:23.030Z,0.70
2023-03-14T19:56:50.269Z,0.73
2023-03-14T19:59:17.352Z,0.70
2023-03-14T20:01:47.208Z,1.07
2023-03-14T20:04:14.645Z,1.10
2023-03-14T20:06:44.627Z,1.00
2023-03-14T20:09:11.264Z,1.20
2023-03-14T20:11:40.982Z,1.27
2023-03-14T20:14:09.266Z,1.00
2023-03-14T20:16:37.463Z,1.13
2023-03-14T20:19:06.078Z,0.97
2023-03-14T20:21:32.873Z,0.93
2023-03-14T20:23:59.851Z,0.80
2023-03-14T20:26:27.177Z,0.70
2023-03-14T20:28:53.809Z,0.90
2023-03-14T20:31:20.513Z,0.80
2023-03-14T20:33:48.704Z,0.80
2023-03-14T20:36:16.447Z,1.00
2023-03-14T20:38:43.628Z,0.90
2023-03-14T20:41:10.911Z,0.87
2023-03-14T20:43:37.903Z,0.90
2023-03-14T20:46:04.813Z,0.80
2023-03-14T20:48:32.164Z,0.80
2023-03-14T20:50:59.120Z,0.90
2023-03-14T20:53:25.934Z,0.80
2023-03-14T20:55:55.736Z,0.77
2023-03-14T20:58:22.548Z,0.93
2023-03-14T21:00:50.554Z,1.00
2023-03-14T21:03:18.015Z,0.70
2023-03-14T21:05:49.577Z,0.97
2023-03-14T21:08:18.476Z,1.00
2023-03-14T21:10:51.964Z,0.97
2023-03-14T21:13:18.730Z,0.90
2023-03-14T21:15:45.519Z,1.00
2023-03-14T21:18:12.289Z,0.80
2023-03-14T21:20:40.405Z,1.00
2023-03-14T21:23:07.245Z,0.97
2023-03-14T21:25:35.118Z,1.00
2023-03-14T21:28:04.234Z,1.17
2023-03-14T21:30:35.347Z,0.90
2023-03-14T21:33:02.491Z,0.90
2023-03-14T21:35:29.785Z,1.07
2023-03-14T21:37:56.765Z,0.80
2023-03-14T21:40:24.390Z,0.90
2023-03-14T21:42:53.170Z,0.90
2023-03-14T21:45:20.898Z,0.90
2023-03-14T21:47:47.737Z,0.90
2023-03-14T21:50:15.104Z,0.87
2023-03-14T21:52:46.143Z,1.00
2023-03-14T21:55:17.517Z,0.90
2023-03-14T21:57:46.461Z,1.00
2023-03-14T22:00:16.852Z,0.80
2023-03-14T22:02:53.889Z,1.00
2023-03-14T22:05:30.477Z,0.90
2023-03-14T22:07:57.062Z,1.00
2023-03-14T22:10:24.070Z,0.90
2023-03-14T22:12:50.726Z,1.10
2023-03-14T22:15:17.382Z,0.93
2023-03-14T22:17:43.989Z,0.93
2023-03-14T22:20:13.678Z,0.80
2023-03-14T22:22:41.121Z,0.70
2023-03-14T22:25:08.214Z,0.80
2023-03-14T22:27:34.857Z,0.80
2023-03-14T22:30:01.702Z,0.90
2023-03-14T22:32:28.343Z,0.70
2023-03-14T22:34:55.006Z,0.60
2023-03-14T22:37:23.288Z,0.70
2023-03-14T22:39:50.036Z,0.70
2023-03-14T22:42:16.834Z,0.70
2023-03-14T22:44:43.521Z,0.70
2023-03-14T22:47:10.244Z,0.60
2023-03-14T22:49:36.886Z,0.80
2023-03-14T22:52:03.756Z,0.80
2023-03-14T22:54:30.403Z,0.70
2023-03-14T22:56:57.238Z,0.80
2023-03-14T22:59:23.875Z,0.70
2023-03-14T23:01:51.359Z,0.80
2023-03-14T23:04:18.085Z,0.70
2023-03-14T23:06:44.789Z,0.73
2023-03-14T23:09:12.048Z,0.80
2023-03-14T23:11:39.668Z,0.93
2023-03-14T23:14:06.401Z,0.60
2023-03-14T23:16:40.358Z,0.80
2023-03-14T23:19:09.695Z,0.70
2023-03-14T23:21:36.594Z,0.80
2023-03-14T23:24:05.738Z,0.70
2023-03-14T23:26:35.345Z,0.97
2023-03-14T23:29:05.394Z,0.77
2023-03-14T23:31:32.616Z,0.70
2023-03-14T23:33:59.269Z,0.93
2023-03-14T23:36:26.124Z,0.90
2023-03-14T23:38:52.797Z,0.90
2023-03-14T23:41:19.450Z,0.90
2023-03-14T23:43:47.294Z,0.93
2023-03-14T23:46:15.125Z,0.90
2023-03-14T23:48:41.836Z,1.37
2023-03-14T23:51:10.589Z,1.20
2023-03-14T23:53:37.291Z,1.10
2023-03-14T23:56:04.186Z,1.10
2023-03-14T23:58:36.125Z,1.20
